EGGWEGBB

Guest
Details From EGGW - London Luton
To EGBB - Birmingham
Flight Number -
Tags Generated
Created
Modified
Stats Distance 61 nm / 114 km
Max Altitude 0 ft / 0 m
Waypoints 2
Social Downloads 5
Likes 0
Share VATSIM

Download

Looking for another format? Having issues loading an existing format? Contact us
Advertisement - Login to hide

Notes

Generated

Route

EGGW EGBB

ID Type Via Altitude Latitude Longitude Leg Dist Tot Dist Heading (true) Name
O EGGW APT - 0 ft / 0 m 51.87202˚ -0.38355˚ - 0 nm - -
O EGBB APT - 0 ft / 0 m 52.45113˚ -1.75493˚ 61 nm 61 nm 305° / 304° -

Altitude Profile

Advertisement - Login to hide

EGGW

Details ICAO EGGW (LTN)
Name London Luton
Region United Kingdom
Timezone Europe/London (UTC+1.0)
Stats Elevation 526 ft / 160 m (AMSL)
Location 51.874629° -0.368450°
Runways 1
Magnetic Variation 0.506° W

METAR

EGGW 271720Z AUTO 12003KT 9999 -RA BKN034/// //////CB 23/19 Q1015

Decode

TAF

TAF EGGW 271054Z 2712/2812 10005KT 9999 FEW040 PROB40 TEMPO 2712/2721 2000 +SHRA +TSGR BKN012 BKN040CB BECMG 2801/2804 3000 BR BKN005 PROB40 2803/2809 1200 BKN002 BECMG 2808/2811 9999 NSW SCT030

Decode

Departure Runways

ID Width Length Bearing (true) Bearing (mag) Surface Threshold Offset Overrun Length
08 151 ft / 46 m 7,066 ft / 2,154 m 74.35° 74.86° Asphalt 0 ft / 0 m 200 ft / 61 m
26 151 ft / 46 m 7,066 ft / 2,154 m 254.38° 254.89° Asphalt 272 ft / 83 m 0 ft / 0 m

EGBB

Details ICAO EGBB (BHX)
Name Birmingham
Region United Kingdom
Timezone Europe/London (UTC+1.0)
Stats Elevation 327 ft / 100 m (AMSL)
Location 52.455966° -1.750378°
Runways 1
Magnetic Variation 1.071° W

METAR

EGBB 271720Z 25004KT 220V330 9999 8000N TS BKN021CB OVC110TCU 19/17 Q1015 RETS RERA

Decode

TAF

TAF EGBB 271106Z 2712/2812 06009KT 9999 SCT045 TEMPO 2712/2721 6000 SHRA PROB40 TEMPO 2712/2720 3000 +SHRA TSGR BKN014 BKN045CB BECMG 2802/2805 6000 BKN007 PROB40 TEMPO 2804/2809 BKN004 BECMG 2809/2812 9999 FEW045

Decode

Destination Runways

ID Width Length Bearing (true) Bearing (mag) Surface Threshold Offset Overrun Length
15 151 ft / 46 m 8,477 ft / 2,584 m 145.87° 146.94° Asphalt 925 ft / 282 m 0 ft / 0 m
33 151 ft / 46 m 8,477 ft / 2,584 m 325.89° 326.96° Asphalt 958 ft / 292 m 0 ft / 0 m

Approach Navaids

Runway Type Ident Frequency Range Bearing (true) Bearing (mag) Slope Elevation
15 Localiser IBIR 110.10 MHz 18 nm / 33 km 145.89° 146.96° - 325 ft / 99 m (AMSL)
15 Glidescope IBIR 110.10 MHz 10 nm / 19 km 145.88° 146.95° 3.00° 325 ft / 99 m (AMSL)
15 DME IBIR 110.10 MHz 18 nm / 33 km - - - 349 ft / 106 m (AMSL)
33 Localiser IBM 110.10 MHz 18 nm / 33 km 325.87° 326.94° - 325 ft / 99 m (AMSL)
33 Glidescope IBM 110.10 MHz 10 nm / 19 km 325.88° 326.95° 3.00° 325 ft / 99 m (AMSL)
33 DME IBM 110.10 MHz 18 nm / 33 km - - - 327 ft / 100 m (AMSL)

Popular Alternatives